MST,Max TemperatureF,Mean TemperatureF,Min TemperatureF,Max Dew PointF,MeanDew PointF,Min DewpointF,Max Humidity, Mean Humidity, Min Humidity, Max Sea Level PressureIn, Mean Sea Level PressureIn, Min Sea Level PressureIn, Max VisibilityMiles, Mean VisibilityMiles, Min VisibilityMiles, Max Wind SpeedMPH, Mean Wind SpeedMPH, Max Gust SpeedMPH,PrecipitationIn, CloudCover, Events, WindDirDegrees
2012-1-1,27,17,6,9,6,0,76,59,42,30.74,30.57,30.28,10,10,10,31,17,41,0.00,1,,299
2012-1-2,32,17,2,16,7,-2,86,63,39,30.69,30.39,29.95,10,10,10,28,13,32,0.00,0,,177
2012-1-3,53,40,26,27,24,21,85,57,29,30.17,30.00,29.88,10,10,10,39,17,48,0.00,0,,271
2012-1-4,54,43,31,25,24,22,78,54,29,30.12,30.05,29.90,10,10,10,22,13,25,0.00,0,,256
2012-1-5,62,47,31,26,23,20,63,43,23,29.88,29.78,29.66,10,10,10,29,15,37,0.00,0,,273
2012-1-6,42,31,20,22,18,14,74,54,34,30.07,29.97,29.81,10,10,10,30,16,38,0.00,0,,284
2012-1-7,39,26,13,19,15,10,80,60,40,30.21,30.15,30.06,10,10,10,12,6,14,0.00,1,,265
2012-1-8,41,27,13,23,17,11,80,59,37,30.18,30.09,29.99,10,10,10,21,12,25,0.00,0,,254
2012-1-9,54,44,33,29,26,24,75,57,38,30.02,29.98,29.90,10,10,10,25,16,31,0.00,0,,268
2012-1-10,52,41,29,34,27,23,100,68,35,29.97,29.82,29.68,10,8,1,28,14,33,0.05,5,Rain-Snow,302
2012-1-11,29,14,-1,27,8,-7,86,80,73,30.31,30.14,29.95,10,5,0,33,22,41,T,7,Fog-Snow,315
2012-1-12,23,9,-5,19,8,-9,92,77,62,30.32,30.14,29.94,10,8,2,16,9,20,T,6,Snow,290
2012-1-13,32,23,13,27,22,11,92,81,69,30.01,29.88,29.78,10,7,1,26,12,32,T,6,Snow,287
2012-1-14,32,24,16,21,17,12,81,70,59,30.06,29.95,29.70,10,10,10,17,11,21,0.00,1,,232
2012-1-15,37,21,5,25,13,0,83,68,52,30.04,29.79,29.55,10,10,10,31,15,37,T,2,,300
2012-1-16,5,-3,-11,-1,-6,-15,87,78,68,30.35,30.18,29.95,10,10,10,18,11,22,0.00,4,,323
2012-1-17,18,4,-10,7,-4,-13,83,75,67,30.38,30.17,29.81,10,9,3,21,8,26,T,4,Snow,185
2012-1-18,20,3,-14,9,-12,-22,87,75,62,30.19,29.94,29.67,10,8,2,28,15,33,T,5,Snow,309
2012-1-19,3,-5,-13,-2,-11,-21,79,71,63,30.19,30.07,29.92,10,8,2,12,7,14,T,7,Snow,261
2012-1-20,9,3,-3,-2,-3,-7,87,75,63,30.20,30.00,29.77,10,6,2,23,7,28,0.01,6,Snow,56
2012-1-21,26,15,3,22,9,-1,86,80,73,29.79,29.49,29.35,10,10,8,26,13,31,T,3,,157
2012-1-22,35,26,17,31,22,10,92,81,69,29.83,29.55,29.26,10,8,1,40,19,51,0.06,7,Rain-Snow,302
2012-1-23,36,21,5,23,14,3,92,72,52,29.92,29.89,29.73,10,10,10,16,7,22,0.00,0,,250
2012-1-24,38,28,18,22,19,12,84,68,52,30.17,30.07,29.91,10,10,10,18,10,22,0.00,2,,250
2012-1-25,50,33,16,32,24,11,74,60,46,29.99,29.77,29.65,10,9,2,40,19,48,T,4,Rain-Snow,256
2012-1-26,44,33,22,29,24,19,96,69,41,29.97,29.81,29.63,10,10,10,24,12,32,T,3,,245
2012-1-27,36,27,17,30,18,9,85,62,39,30.14,29.99,29.61,10,9,2,33,19,41,T,5,Snow,299
2012-1-28,34,22,10,13,11,8,84,63,41,30.17,30.11,30.05,10,10,10,31,15,39,0.00,4,,294
2012-1-29,51,29,7,29,20,6,88,65,41,30.14,29.84,29.62,10,10,9,25,13,32,T,6,,210
2012-1-30,52,44,35,36,28,23,92,62,32,29.65,29.57,29.50,10,10,10,23,12,29,T,3,Rain,261
2012-1-31,49,39,29,33,28,23,96,68,39,29.96,29.84,29.66,10,10,10,22,12,25,0.00,2,,273